sensor_id;sensor_type;location;lat;lon;timestamp;pressure;altitude;pressure_sealevel;temperature
42119;BMP280;27783;42.782;23.274;2023-07-02T00:01:49;94877.47;;;17.22
42119;BMP280;27783;42.782;23.274;2023-07-02T00:04:16;94889.34;;;17.30
42119;BMP280;27783;42.782;23.274;2023-07-02T00:06:51;94886.06;;;17.26
42119;BMP280;27783;42.782;23.274;2023-07-02T00:09:16;94888.06;;;17.05
42119;BMP280;27783;42.782;23.274;2023-07-02T00:11:51;94888.34;;;17.36
42119;BMP280;27783;42.782;23.274;2023-07-02T00:14:17;94886.44;;;17.37
42119;BMP280;27783;42.782;23.274;2023-07-02T00:16:45;94889.03;;;17.67
42119;BMP280;27783;42.782;23.274;2023-07-02T00:19:15;94887.34;;;17.43
42119;BMP280;27783;42.782;23.274;2023-07-02T00:21:41;94881.38;;;17.39
42119;BMP280;27783;42.782;23.274;2023-07-02T00:24:08;94881.91;;;17.25
42119;BMP280;27783;42.782;23.274;2023-07-02T00:26:37;94890.50;;;17.20
42119;BMP280;27783;42.782;23.274;2023-07-02T00:29:03;94889.34;;;17.30
42119;BMP280;27783;42.782;23.274;2023-07-02T00:31:31;94890.22;;;17.27
42119;BMP280;27783;42.782;23.274;2023-07-02T00:33:57;94900.91;;;17.06
42119;BMP280;27783;42.782;23.274;2023-07-02T00:36:25;94899.31;;;17.09
42119;BMP280;27783;42.782;23.274;2023-07-02T00:38:51;94904.50;;;17.12
42119;BMP280;27783;42.782;23.274;2023-07-02T00:41:17;94914.63;;;16.96
42119;BMP280;27783;42.782;23.274;2023-07-02T00:43:42;94913.06;;;16.86
42119;BMP280;27783;42.782;23.274;2023-07-02T00:46:18;94919.00;;;17.11
42119;BMP280;27783;42.782;23.274;2023-07-02T00:48:48;94923.25;;;17.09
42119;BMP280;27783;42.782;23.274;2023-07-02T00:51:18;94925.53;;;16.89
42119;BMP280;27783;42.782;23.274;2023-07-02T00:53:51;94927.56;;;17.06
42119;BMP280;27783;42.782;23.274;2023-07-02T00:56:18;94928.09;;;16.81
42119;BMP280;27783;42.782;23.274;2023-07-02T00:58:49;94931.66;;;16.99
42119;BMP280;27783;42.782;23.274;2023-07-02T01:01:19;94924.13;;;17.06
42119;BMP280;27783;42.782;23.274;2023-07-02T01:04:01;94915.84;;;17.04
42119;BMP280;27783;42.782;23.274;2023-07-02T01:06:35;94923.84;;;17.04
42119;BMP280;27783;42.782;23.274;2023-07-02T01:09:05;94919.06;;;16.99
42119;BMP280;27783;42.782;23.274;2023-07-02T01:11:43;94915.38;;;17.26
42119;BMP280;27783;42.782;23.274;2023-07-02T01:14:16;94906.22;;;16.98
42119;BMP280;27783;42.782;23.274;2023-07-02T01:16:43;94911.28;;;17.04
42119;BMP280;27783;42.782;23.274;2023-07-02T01:19:18;94912.75;;;17.35
42119;BMP280;27783;42.782;23.274;2023-07-02T01:21:45;94911.97;;;16.96
42119;BMP280;27783;42.782;23.274;2023-07-02T01:24:11;94900.50;;;17.08
42119;BMP280;27783;42.782;23.274;2023-07-02T01:26:39;94901.78;;;17.24
42119;BMP280;27783;42.782;23.274;2023-07-02T01:29:20;94884.16;;;16.97
42119;BMP280;27783;42.782;23.274;2023-07-02T01:31:47;94882.53;;;17.00
42119;BMP280;27783;42.782;23.274;2023-07-02T01:34:13;94885.69;;;16.86
42119;BMP280;27783;42.782;23.274;2023-07-02T01:36:40;94883.91;;;17.04
42119;BMP280;27783;42.782;23.274;2023-07-02T01:39:06;94895.03;;;17.11
42119;BMP280;27783;42.782;23.274;2023-07-02T01:41:49;94892.50;;;17.08
42119;BMP280;27783;42.782;23.274;2023-07-02T01:44:16;94886.44;;;17.07
42119;BMP280;27783;42.782;23.274;2023-07-02T01:46:41;94879.88;;;17.00
42119;BMP280;27783;42.782;23.274;2023-07-02T01:49:06;94873.88;;;16.87
42119;BMP280;27783;42.782;23.274;2023-07-02T01:51:33;94873.38;;;17.01
42119;BMP280;27783;42.782;23.274;2023-07-02T01:54:00;94885.25;;;16.87
42119;BMP280;27783;42.782;23.274;2023-07-02T01:56:26;94867.19;;;16.83
42119;BMP280;27783;42.782;23.274;2023-07-02T01:58:53;94882.69;;;16.75
42119;BMP280;27783;42.782;23.274;2023-07-02T02:01:19;94866.25;;;16.77
42119;BMP280;27783;42.782;23.274;2023-07-02T02:03:45;94861.72;;;16.86
42119;BMP280;27783;42.782;23.274;2023-07-02T02:06:10;94858.97;;;16.89
42119;BMP280;27783;42.782;23.274;2023-07-02T02:08:36;94852.47;;;16.90
42119;BMP280;27783;42.782;23.274;2023-07-02T02:11:01;94848.13;;;17.05
42119;BMP280;27783;42.782;23.274;2023-07-02T02:13:26;94857.25;;;16.95
42119;BMP280;27783;42.782;23.274;2023-07-02T02:15:54;94852.25;;;17.06
42119;BMP280;27783;42.782;23.274;2023-07-02T02:18:22;94851.03;;;16.98
42119;BMP280;27783;42.782;23.274;2023-07-02T02:20:48;94849.25;;;16.95
42119;BMP280;27783;42.782;23.274;2023-07-02T02:23:15;94845.44;;;17.35
42119;BMP280;27783;42.782;23.274;2023-07-02T02:25:40;94840.69;;;16.79
42119;BMP280;27783;42.782;23.274;2023-07-02T02:28:06;94841.69;;;16.73
42119;BMP280;27783;42.782;23.274;2023-07-02T02:30:31;94839.53;;;16.59
42119;BMP280;27783;42.782;23.274;2023-07-02T02:32:58;94831.38;;;16.54
42119;BMP280;27783;42.782;23.274;2023-07-02T02:35:23;94832.81;;;16.25
42119;BMP280;27783;42.782;23.274;2023-07-02T02:37:51;94829.84;;;16.23
42119;BMP280;27783;42.782;23.274;2023-07-02T02:40:16;94827.44;;;16.37
42119;BMP280;27783;42.782;23.274;2023-07-02T02:42:43;94835.03;;;16.48
42119;BMP280;27783;42.782;23.274;2023-07-02T02:45:09;94829.97;;;16.41
42119;BMP280;27783;42.782;23.274;2023-07-02T02:47:36;94842.34;;;16.56
42119;BMP280;27783;42.782;23.274;2023-07-02T02:50:01;94841.34;;;16.41
42119;BMP280;27783;42.782;23.274;2023-07-02T02:52:27;94852.41;;;16.61
42119;BMP280;27783;42.782;23.274;2023-07-02T02:54:53;94851.78;;;16.78
42119;BMP280;27783;42.782;23.274;2023-07-02T02:57:19;94850.88;;;16.72
42119;BMP280;27783;42.782;23.274;2023-07-02T02:59:46;94847.97;;;16.79
42119;BMP280;27783;42.782;23.274;2023-07-02T03:02:11;94861.44;;;16.84
42119;BMP280;27783;42.782;23.274;2023-07-02T03:04:37;94862.03;;;17.09
42119;BMP280;27783;42.782;23.274;2023-07-02T03:07:06;94872.09;;;17.05
42119;BMP280;27783;42.782;23.274;2023-07-02T03:09:35;94864.34;;;16.98
42119;BMP280;27783;42.782;23.274;2023-07-02T03:12:00;94842.34;;;16.56
42119;BMP280;27783;42.782;23.274;2023-07-02T03:14:26;94851.81;;;16.57
42119;BMP280;27783;42.782;23.274;2023-07-02T03:16:51;94881.84;;;17.08
42119;BMP280;27783;42.782;23.274;2023-07-02T03:19:17;94888.94;;;16.81
42119;BMP280;27783;42.782;23.274;2023-07-02T03:21:51;94889.19;;;16.95
42119;BMP280;27783;42.782;23.274;2023-07-02T03:24:17;94894.28;;;17.11
42119;BMP280;27783;42.782;23.274;2023-07-02T03:26:43;94895.34;;;17.13
42119;BMP280;27783;42.782;23.274;2023-07-02T03:29:10;94894.06;;;16.97
42119;BMP280;27783;42.782;23.274;2023-07-02T03:31:38;94887.94;;;17.08
42119;BMP280;27783;42.782;23.274;2023-07-02T03:34:07;94887.44;;;17.01
42119;BMP280;27783;42.782;23.274;2023-07-02T03:36:35;94879.09;;;16.90
42119;BMP280;27783;42.782;23.274;2023-07-02T03:39:00;94875.44;;;17.35
42119;BMP280;27783;42.782;23.274;2023-07-02T03:41:34;94867.41;;;17.18
42119;BMP280;27783;42.782;23.274;2023-07-02T03:44:03;94861.75;;;17.16
42119;BMP280;27783;42.782;23.274;2023-07-02T03:46:28;94870.94;;;17.15
42119;BMP280;27783;42.782;23.274;2023-07-02T03:48:56;94870.63;;;17.13
42119;BMP280;27783;42.782;23.274;2023-07-02T03:51:21;94864.63;;;17.21
42119;BMP280;27783;42.782;23.274;2023-07-02T03:53:47;94869.97;;;17.30
42119;BMP280;27783;42.782;23.274;2023-07-02T03:56:15;94878.44;;;17.37
42119;BMP280;27783;42.782;23.274;2023-07-02T03:58:40;94882.06;;;17.60
42119;BMP280;27783;42.782;23.274;2023-07-02T04:01:06;94879.69;;;17.53
42119;BMP280;27783;42.782;23.274;2023-07-02T04:03:32;94879.06;;;17.50
42119;BMP280;27783;42.782;23.274;2023-07-02T04:05:59;94887.09;;;17.58
42119;BMP280;27783;42.782;23.274;2023-07-02T04:08:26;94890.69;;;17.73
42119;BMP280;27783;42.782;23.274;2023-07-02T04:10:53;94899.78;;;17.84
42119;BMP280;27783;42.782;23.274;2023-07-02T04:13:19;94906.47;;;17.97
42119;BMP280;27783;42.782;23.274;2023-07-02T04:15:44;94910.31;;;17.87
42119;BMP280;27783;42.782;23.274;2023-07-02T04:18:11;94907.22;;;17.51
42119;BMP280;27783;42.782;23.274;2023-07-02T04:20:38;94901.06;;;17.71
42119;BMP280;27783;42.782;23.274;2023-07-02T04:23:04;94909.63;;;17.66
42119;BMP280;27783;42.782;23.274;2023-07-02T04:25:31;94914.91;;;17.96
42119;BMP280;27783;42.782;23.274;2023-07-02T04:27:57;94912.31;;;17.75
42119;BMP280;27783;42.782;23.274;2023-07-02T04:30:25;94915.56;;;17.70
42119;BMP280;27783;42.782;23.274;2023-07-02T04:32:51;94913.56;;;17.91
42119;BMP280;27783;42.782;23.274;2023-07-02T04:35:18;94925.72;;;18.01
42119;BMP280;27783;42.782;23.274;2023-07-02T04:37:43;94926.19;;;18.08
42119;BMP280;27783;42.782;23.274;2023-07-02T04:40:09;94926.03;;;18.03
42119;BMP280;27783;42.782;23.274;2023-07-02T04:42:36;94935.81;;;18.06
42119;BMP280;27783;42.782;23.274;2023-07-02T04:45:06;94942.19;;;18.08
42119;BMP280;27783;42.782;23.274;2023-07-02T04:47:34;94947.44;;;18.20
42119;BMP280;27783;42.782;23.274;2023-07-02T04:50:01;94937.94;;;18.19
42119;BMP280;27783;42.782;23.274;2023-07-02T04:52:27;94945.38;;;18.33
42119;BMP280;27783;42.782;23.274;2023-07-02T04:54:53;94941.50;;;18.34
42119;BMP280;27783;42.782;23.274;2023-07-02T04:57:18;94944.34;;;18.39
42119;BMP280;27783;42.782;23.274;2023-07-02T04:59:44;94942.69;;;18.33
42119;BMP280;27783;42.782;23.274;2023-07-02T05:02:10;94951.31;;;18.37
42119;BMP280;27783;42.782;23.274;2023-07-02T05:04:36;94947.28;;;18.33
42119;BMP280;27783;42.782;23.274;2023-07-02T05:07:05;94943.88;;;18.41
42119;BMP280;27783;42.782;23.274;2023-07-02T05:09:32;94942.53;;;18.54
42119;BMP280;27783;42.782;23.274;2023-07-02T05:11:58;94952.78;;;18.55
42119;BMP280;27783;42.782;23.274;2023-07-02T05:14:24;94943.16;;;18.49
42119;BMP280;27783;42.782;23.274;2023-07-02T05:16:49;94939.44;;;18.55
42119;BMP280;27783;42.782;23.274;2023-07-02T05:19:15;94945.97;;;18.54
42119;BMP280;27783;42.782;23.274;2023-07-02T05:21:40;94935.75;;;18.62
42119;BMP280;27783;42.782;23.274;2023-07-02T05:24:08;94941.69;;;18.74
42119;BMP280;27783;42.782;23.274;2023-07-02T05:26:34;94938.38;;;19.14
42119;BMP280;27783;42.782;23.274;2023-07-02T05:28:59;94949.81;;;18.97
42119;BMP280;27783;42.782;23.274;2023-07-02T05:31:26;94945.03;;;19.27
42119;BMP280;27783;42.782;23.274;2023-07-02T05:33:51;94945.06;;;19.19
42119;BMP280;27783;42.782;23.274;2023-07-02T05:36:20;94945.00;;;19.45
42119;BMP280;27783;42.782;23.274;2023-07-02T05:38:46;94944.28;;;19.27
42119;BMP280;27783;42.782;23.274;2023-07-02T05:41:20;94950.25;;;19.22
42119;BMP280;27783;42.782;23.274;2023-07-02T05:43:48;94951.53;;;19.44
42119;BMP280;27783;42.782;23.274;2023-07-02T05:46:15;94954.06;;;19.38
42119;BMP280;27783;42.782;23.274;2023-07-02T05:48:41;94958.78;;;19.43
42119;BMP280;27783;42.782;23.274;2023-07-02T05:51:08;94965.66;;;19.36
42119;BMP280;27783;42.782;23.274;2023-07-02T05:53:37;94971.56;;;19.48
42119;BMP280;27783;42.782;23.274;2023-07-02T05:56:03;94963.00;;;19.27
42119;BMP280;27783;42.782;23.274;2023-07-02T05:58:29;94969.06;;;19.36
42119;BMP280;27783;42.782;23.274;2023-07-02T06:00:56;94965.63;;;19.62
42119;BMP280;27783;42.782;23.274;2023-07-02T06:03:22;94964.59;;;19.91
42119;BMP280;27783;42.782;23.274;2023-07-02T06:05:48;94957.78;;;20.13
42119;BMP280;27783;42.782;23.274;2023-07-02T06:08:17;94963.22;;;20.27
42119;BMP280;27783;42.782;23.274;2023-07-02T06:10:47;94955.59;;;20.11
42119;BMP280;27783;42.782;23.274;2023-07-02T06:13:14;94949.69;;;19.99
42119;BMP280;27783;42.782;23.274;2023-07-02T06:15:40;94953.56;;;20.29
42119;BMP280;27783;42.782;23.274;2023-07-02T06:18:07;94941.94;;;20.32
42119;BMP280;27783;42.782;23.274;2023-07-02T06:20:35;94939.84;;;20.36
42119;BMP280;27783;42.782;23.274;2023-07-02T06:23:00;94942.91;;;20.12
42119;BMP280;27783;42.782;23.274;2023-07-02T06:25:28;94934.63;;;20.92
42119;BMP280;27783;42.782;23.274;2023-07-02T06:27:54;94938.94;;;21.13
42119;BMP280;27783;42.782;23.274;2023-07-02T06:30:25;94933.44;;;20.93
42119;BMP280;27783;42.782;23.274;2023-07-02T06:32:51;94937.81;;;21.05
42119;BMP280;27783;42.782;23.274;2023-07-02T06:35:17;94930.25;;;21.18
42119;BMP280;27783;42.782;23.274;2023-07-02T06:37:43;94932.84;;;21.26
42119;BMP280;27783;42.782;23.274;2023-07-02T06:40:09;94926.34;;;21.75
42119;BMP280;27783;42.782;23.274;2023-07-02T06:42:37;94925.25;;;21.53
42119;BMP280;27783;42.782;23.274;2023-07-02T06:45:03;94935.22;;;21.10
42119;BMP280;27783;42.782;23.274;2023-07-02T06:47:28;94935.16;;;21.33
42119;BMP280;27783;42.782;23.274;2023-07-02T06:49:57;94930.88;;;21.69
42119;BMP280;27783;42.782;23.274;2023-07-02T06:52:23;94933.38;;;21.58
42119;BMP280;27783;42.782;23.274;2023-07-02T06:54:50;94929.84;;;21.81
42119;BMP280;27783;42.782;23.274;2023-07-02T06:57:15;94925.25;;;21.81
42119;BMP280;27783;42.782;23.274;2023-07-02T07:00:01;94927.91;;;21.95
42119;BMP280;27783;42.782;23.274;2023-07-02T07:02:29;94923.38;;;22.21
42119;BMP280;27783;42.782;23.274;2023-07-02T07:04:54;94921.34;;;21.82
42119;BMP280;27783;42.782;23.274;2023-07-02T07:07:21;94917.59;;;22.47
42119;BMP280;27783;42.782;23.274;2023-07-02T07:09:46;94916.34;;;22.81
42119;BMP280;27783;42.782;23.274;2023-07-02T07:12:12;94916.41;;;22.87
42119;BMP280;27783;42.782;23.274;2023-07-02T07:14:38;94911.31;;;23.38
42119;BMP280;27783;42.782;23.274;2023-07-02T07:17:05;94916.19;;;23.34
42119;BMP280;27783;42.782;23.274;2023-07-02T07:19:32;94902.06;;;24.45
42119;BMP280;27783;42.782;23.274;2023-07-02T07:21:58;94908.19;;;23.75
42119;BMP280;27783;42.782;23.274;2023-07-02T07:24:25;94906.47;;;24.02
42119;BMP280;27783;42.782;23.274;2023-07-02T07:26:51;94907.78;;;24.63
42119;BMP280;27783;42.782;23.274;2023-07-02T07:29:16;94895.91;;;25.02
42119;BMP280;27783;42.782;23.274;2023-07-02T07:31:42;94900.63;;;25.17
42119;BMP280;27783;42.782;23.274;2023-07-02T07:34:07;94893.56;;;25.78
42119;BMP280;27783;42.782;23.274;2023-07-02T07:36:33;94898.81;;;24.88
42119;BMP280;27783;42.782;23.274;2023-07-02T07:38:59;94897.19;;;25.17
42119;BMP280;27783;42.782;23.274;2023-07-02T07:41:24;94899.91;;;25.38
42119;BMP280;27783;42.782;23.274;2023-07-02T07:43:51;94897.91;;;26.29
42119;BMP280;27783;42.782;23.274;2023-07-02T07:46:16;94877.34;;;25.89
42119;BMP280;27783;42.782;23.274;2023-07-02T07:48:43;94892.78;;;25.35
42119;BMP280;27783;42.782;23.274;2023-07-02T07:51:08;94884.97;;;25.80
42119;BMP280;27783;42.782;23.274;2023-07-02T07:53:37;94883.50;;;25.79
42119;BMP280;27783;42.782;23.274;2023-07-02T07:56:05;94879.66;;;26.51
42119;BMP280;27783;42.782;23.274;2023-07-02T07:58:31;94884.19;;;26.06
42119;BMP280;27783;42.782;23.274;2023-07-02T08:00:59;94882.16;;;26.33
42119;BMP280;27783;42.782;23.274;2023-07-02T08:03:26;94892.31;;;25.85
42119;BMP280;27783;42.782;23.274;2023-07-02T08:05:52;94892.56;;;25.60
42119;BMP280;27783;42.782;23.274;2023-07-02T08:08:21;94895.19;;;26.24
42119;BMP280;27783;42.782;23.274;2023-07-02T08:10:46;94895.00;;;25.95
42119;BMP280;27783;42.782;23.274;2023-07-02T08:13:12;94896.25;;;25.73
42119;BMP280;27783;42.782;23.274;2023-07-02T08:15:38;94896.47;;;25.75
42119;BMP280;27783;42.782;23.274;2023-07-02T08:18:04;94896.72;;;25.34
42119;BMP280;27783;42.782;23.274;2023-07-02T08:20:30;94893.06;;;25.64
42119;BMP280;27783;42.782;23.274;2023-07-02T08:22:55;94892.19;;;26.59
42119;BMP280;27783;42.782;23.274;2023-07-02T08:25:21;94883.88;;;26.31
42119;BMP280;27783;42.782;23.274;2023-07-02T08:27:48;94878.50;;;26.25
42119;BMP280;27783;42.782;23.274;2023-07-02T08:30:13;94884.22;;;26.01
42119;BMP280;27783;42.782;23.274;2023-07-02T08:32:39;94886.13;;;26.22
42119;BMP280;27783;42.782;23.274;2023-07-02T08:35:11;94884.47;;;26.79
42119;BMP280;27783;42.782;23.274;2023-07-02T08:37:36;94873.91;;;26.76
42119;BMP280;27783;42.782;23.274;2023-07-02T08:40:02;94877.84;;;26.75
42119;BMP280;27783;42.782;23.274;2023-07-02T08:42:33;94872.78;;;27.45
42119;BMP280;27783;42.782;23.274;2023-07-02T08:45:00;94874.38;;;27.64
42119;BMP280;27783;42.782;23.274;2023-07-02T08:47:27;94890.56;;;26.91
42119;BMP280;27783;42.782;23.274;2023-07-02T08:49:53;94881.50;;;26.83
42119;BMP280;27783;42.782;23.274;2023-07-02T08:52:25;94879.50;;;27.67
42119;BMP280;27783;42.782;23.274;2023-07-02T08:54:52;94880.66;;;27.04
42119;BMP280;27783;42.782;23.274;2023-07-02T08:57:18;94879.25;;;28.23
42119;BMP280;27783;42.782;23.274;2023-07-02T08:59:44;94873.31;;;27.72
42119;BMP280;27783;42.782;23.274;2023-07-02T09:02:10;94868.03;;;28.13
42119;BMP280;27783;42.782;23.274;2023-07-02T09:04:36;94875.16;;;27.88
42119;BMP280;27783;42.782;23.274;2023-07-02T09:07:08;94864.00;;;28.84
42119;BMP280;27783;42.782;23.274;2023-07-02T09:09:48;94869.63;;;28.27
42119;BMP280;27783;42.782;23.274;2023-07-02T09:14:59;94869.34;;;28.30
42119;BMP280;27783;42.782;23.274;2023-07-02T09:17:30;94866.44;;;28.46
42119;BMP280;27783;42.782;23.274;2023-07-02T09:19:57;94866.47;;;27.94
42119;BMP280;27783;42.782;23.274;2023-07-02T09:22:26;94860.00;;;27.74
42119;BMP280;27783;42.782;23.274;2023-07-02T09:25:04;94865.91;;;28.01
42119;BMP280;27783;42.782;23.274;2023-07-02T09:27:41;94858.44;;;28.77
42119;BMP280;27783;42.782;23.274;2023-07-02T09:30:11;94858.50;;;27.44
42119;BMP280;27783;42.782;23.274;2023-07-02T09:32:38;94860.81;;;27.92
42119;BMP280;27783;42.782;23.274;2023-07-02T09:35:04;94852.22;;;28.59
42119;BMP280;27783;42.782;23.274;2023-07-02T09:37:31;94857.31;;;27.97
42119;BMP280;27783;42.782;23.274;2023-07-02T09:39:56;94845.75;;;29.03
42119;BMP280;27783;42.782;23.274;2023-07-02T09:42:22;94846.00;;;28.63
42119;BMP280;27783;42.782;23.274;2023-07-02T09:44:48;94849.22;;;28.62
42119;BMP280;27783;42.782;23.274;2023-07-02T09:47:18;94844.88;;;28.12
42119;BMP280;27783;42.782;23.274;2023-07-02T09:49:54;94846.63;;;28.75
42119;BMP280;27783;42.782;23.274;2023-07-02T09:52:21;94828.00;;;30.37
42119;BMP280;27783;42.782;23.274;2023-07-02T09:54:47;94834.16;;;29.20
42119;BMP280;27783;42.782;23.274;2023-07-02T09:57:12;94842.81;;;27.95
42119;BMP280;27783;42.782;23.274;2023-07-02T09:59:39;94844.09;;;28.17
42119;BMP280;27783;42.782;23.274;2023-07-02T10:02:05;94830.69;;;29.20
42119;BMP280;27783;42.782;23.274;2023-07-02T10:04:44;94834.25;;;29.76
42119;BMP280;27783;42.782;23.274;2023-07-02T10:07:11;94831.69;;;28.22
42119;BMP280;27783;42.782;23.274;2023-07-02T10:09:43;94832.78;;;28.96
42119;BMP280;27783;42.782;23.274;2023-07-02T10:12:29;94817.50;;;29.11
42119;BMP280;27783;42.782;23.274;2023-07-02T10:14:56;94812.75;;;29.78
42119;BMP280;27783;42.782;23.274;2023-07-02T10:17:33;94809.22;;;29.83
42119;BMP280;27783;42.782;23.274;2023-07-02T10:20:05;94804.53;;;29.53
42119;BMP280;27783;42.782;23.274;2023-07-02T10:22:48;94808.19;;;27.83
42119;BMP280;27783;42.782;23.274;2023-07-02T10:25:25;94806.22;;;28.07
42119;BMP280;27783;42.782;23.274;2023-07-02T10:27:51;94805.63;;;28.78
42119;BMP280;27783;42.782;23.274;2023-07-02T10:30:17;94796.56;;;29.42
42119;BMP280;27783;42.782;23.274;2023-07-02T10:32:43;94795.19;;;30.80
42119;BMP280;27783;42.782;23.274;2023-07-02T10:35:15;94797.81;;;29.84
42119;BMP280;27783;42.782;23.274;2023-07-02T10:37:42;94802.34;;;30.58
42119;BMP280;27783;42.782;23.274;2023-07-02T10:40:08;94804.84;;;30.18
42119;BMP280;27783;42.782;23.274;2023-07-02T10:42:45;94802.13;;;30.81
42119;BMP280;27783;42.782;23.274;2023-07-02T10:45:11;94796.16;;;30.57
42119;BMP280;27783;42.782;23.274;2023-07-02T10:47:39;94799.41;;;29.49
42119;BMP280;27783;42.782;23.274;2023-07-02T10:50:19;94797.94;;;29.00
42119;BMP280;27783;42.782;23.274;2023-07-02T10:52:45;94798.63;;;29.18
42119;BMP280;27783;42.782;23.274;2023-07-02T10:55:25;94801.09;;;29.65
42119;BMP280;27783;42.782;23.274;2023-07-02T10:58:04;94801.50;;;28.54
42119;BMP280;27783;42.782;23.274;2023-07-02T11:00:30;94795.03;;;30.15
42119;BMP280;27783;42.782;23.274;2023-07-02T11:02:55;94791.41;;;29.69
42119;BMP280;27783;42.782;23.274;2023-07-02T11:05:21;94797.34;;;30.36
42119;BMP280;27783;42.782;23.274;2023-07-02T11:07:46;94792.75;;;30.31
42119;BMP280;27783;42.782;23.274;2023-07-02T11:10:18;94797.00;;;29.89
42119;BMP280;27783;42.782;23.274;2023-07-02T11:12:43;94810.53;;;29.15
42119;BMP280;27783;42.782;23.274;2023-07-02T11:15:12;94831.69;;;25.70
42119;BMP280;27783;42.782;23.274;2023-07-02T11:17:38;94845.28;;;24.59
42119;BMP280;27783;42.782;23.274;2023-07-02T11:20:06;94837.47;;;24.61
42119;BMP280;27783;42.782;23.274;2023-07-02T11:22:32;94840.50;;;24.33
42119;BMP280;27783;42.782;23.274;2023-07-02T11:25:12;94839.22;;;24.75
42119;BMP280;27783;42.782;23.274;2023-07-02T11:27:38;94825.81;;;25.23
42119;BMP280;27783;42.782;23.274;2023-07-02T11:30:04;94830.88;;;24.89
42119;BMP280;27783;42.782;23.274;2023-07-02T11:32:29;94828.53;;;25.34
42119;BMP280;27783;42.782;23.274;2023-07-02T11:34:56;94827.78;;;25.17
42119;BMP280;27783;42.782;23.274;2023-07-02T11:37:26;94831.91;;;25.13
42119;BMP280;27783;42.782;23.274;2023-07-02T11:39:55;94824.09;;;25.15
42119;BMP280;27783;42.782;23.274;2023-07-02T11:42:24;94819.69;;;25.33
42119;BMP280;27783;42.782;23.274;2023-07-02T11:44:52;94817.00;;;25.17
42119;BMP280;27783;42.782;23.274;2023-07-02T11:47:20;94809.59;;;25.12
42119;BMP280;27783;42.782;23.274;2023-07-02T11:49:46;94812.56;;;25.52
42119;BMP280;27783;42.782;23.274;2023-07-02T11:52:14;94819.44;;;25.15
42119;BMP280;27783;42.782;23.274;2023-07-02T11:54:42;94826.00;;;24.20
42119;BMP280;27783;42.782;23.274;2023-07-02T11:57:12;94831.63;;;24.17
42119;BMP280;27783;42.782;23.274;2023-07-02T11:59:42;94839.38;;;23.63
42119;BMP280;27783;42.782;23.274;2023-07-02T12:02:07;94843.09;;;24.12
42119;BMP280;27783;42.782;23.274;2023-07-02T12:04:34;94847.34;;;24.29
42119;BMP280;27783;42.782;23.274;2023-07-02T12:07:01;94835.72;;;24.02
42119;BMP280;27783;42.782;23.274;2023-07-02T12:09:29;94839.66;;;23.71
42119;BMP280;27783;42.782;23.274;2023-07-02T12:11:55;94846.50;;;23.66
42119;BMP280;27783;42.782;23.274;2023-07-02T12:14:23;94839.38;;;24.04
42119;BMP280;27783;42.782;23.274;2023-07-02T12:16:52;94839.06;;;24.43
42119;BMP280;27783;42.782;23.274;2023-07-02T12:19:40;94836.53;;;24.75
42119;BMP280;27783;42.782;23.274;2023-07-02T12:22:06;94821.84;;;24.97
42119;BMP280;27783;42.782;23.274;2023-07-02T12:24:32;94821.63;;;24.95
42119;BMP280;27783;42.782;23.274;2023-07-02T12:26:59;94825.75;;;24.86
42119;BMP280;27783;42.782;23.274;2023-07-02T12:29:27;94829.50;;;25.25
42119;BMP280;27783;42.782;23.274;2023-07-02T12:31:55;94824.09;;;25.47
42119;BMP280;27783;42.782;23.274;2023-07-02T12:34:20;94830.38;;;26.19
42119;BMP280;27783;42.782;23.274;2023-07-02T12:36:46;94830.56;;;26.37
42119;BMP280;27783;42.782;23.274;2023-07-02T12:39:12;94833.28;;;26.31
42119;BMP280;27783;42.782;23.274;2023-07-02T12:41:41;94827.72;;;26.69
42119;BMP280;27783;42.782;23.274;2023-07-02T12:44:08;94815.44;;;26.73
42119;BMP280;27783;42.782;23.274;2023-07-02T12:46:38;94807.53;;;27.14
42119;BMP280;27783;42.782;23.274;2023-07-02T12:49:04;94807.13;;;27.39
42119;BMP280;27783;42.782;23.274;2023-07-02T12:51:30;94806.78;;;27.48
42119;BMP280;27783;42.782;23.274;2023-07-02T12:53:56;94801.53;;;28.07
42119;BMP280;27783;42.782;23.274;2023-07-02T12:56:23;94806.81;;;27.42
42119;BMP280;27783;42.782;23.274;2023-07-02T12:58:53;94809.09;;;27.33
42119;BMP280;27783;42.782;23.274;2023-07-02T13:01:19;94806.34;;;27.10
42119;BMP280;27783;42.782;23.274;2023-07-02T13:03:45;94809.34;;;27.01
42119;BMP280;27783;42.782;23.274;2023-07-02T13:06:15;94798.19;;;27.73
42119;BMP280;27783;42.782;23.274;2023-07-02T13:08:41;94804.38;;;27.96
42119;BMP280;27783;42.782;23.274;2023-07-02T13:11:09;94801.63;;;27.16
42119;BMP280;27783;42.782;23.274;2023-07-02T13:13:41;94806.81;;;26.08
42119;BMP280;27783;42.782;23.274;2023-07-02T13:16:06;94799.25;;;26.57
42119;BMP280;27783;42.782;23.274;2023-07-02T13:18:32;94799.81;;;26.45
42119;BMP280;27783;42.782;23.274;2023-07-02T13:20:58;94794.47;;;26.29
42119;BMP280;27783;42.782;23.274;2023-07-02T13:23:25;94786.97;;;25.95
42119;BMP280;27783;42.782;23.274;2023-07-02T13:26:01;94792.94;;;26.44
42119;BMP280;27783;42.782;23.274;2023-07-02T13:28:28;94802.88;;;26.20
42119;BMP280;27783;42.782;23.274;2023-07-02T13:30:54;94795.38;;;25.49
42119;BMP280;27783;42.782;23.274;2023-07-02T13:33:20;94803.25;;;25.26
42119;BMP280;27783;42.782;23.274;2023-07-02T13:35:45;94802.03;;;25.43
42119;BMP280;27783;42.782;23.274;2023-07-02T13:38:13;94802.94;;;24.76
42119;BMP280;27783;42.782;23.274;2023-07-02T13:40:38;94791.16;;;24.68
42119;BMP280;27783;42.782;23.274;2023-07-02T13:43:07;94794.66;;;24.95
42119;BMP280;27783;42.782;23.274;2023-07-02T13:45:34;94796.78;;;24.70
42119;BMP280;27783;42.782;23.274;2023-07-02T13:48:00;94788.78;;;25.23
42119;BMP280;27783;42.782;23.274;2023-07-02T13:50:25;94806.44;;;25.24
42119;BMP280;27783;42.782;23.274;2023-07-02T13:52:51;94797.13;;;25.36
42119;BMP280;27783;42.782;23.274;2023-07-02T13:55:16;94804.72;;;25.27
42119;BMP280;27783;42.782;23.274;2023-07-02T13:57:42;94798.59;;;25.16
42119;BMP280;27783;42.782;23.274;2023-07-02T14:00:08;94804.69;;;25.06
42119;BMP280;27783;42.782;23.274;2023-07-02T14:02:34;94804.19;;;24.91